sensor_id;sensor_type;location;lat;lon;timestamp;pressure;altitude;pressure_sealevel;temperature;humidity
71778;BME280;59609;52.430;4.668;2023-03-19T00:01:45;100982.56;;;11.47;100.00
71778;BME280;59609;52.430;4.668;2023-03-19T00:04:11;100983.94;;;11.51;100.00
71778;BME280;59609;52.430;4.668;2023-03-19T00:06:37;100976.50;;;11.51;100.00
71778;BME280;59609;52.430;4.668;2023-03-19T00:09:02;100990.31;;;11.43;100.00
71778;BME280;59609;52.430;4.668;2023-03-19T00:11:28;100995.31;;;11.56;100.00
71778;BME280;59609;52.430;4.668;2023-03-19T00:13:53;100991.16;;;11.52;100.00
71778;BME280;59609;52.430;4.668;2023-03-19T00:16:19;100995.84;;;11.59;100.00
71778;BME280;59609;52.430;4.668;2023-03-19T00:18:45;100992.06;;;11.60;100.00
71778;BME280;59609;52.430;4.668;2023-03-19T00:21:10;101001.72;;;11.64;100.00
71778;BME280;59609;52.430;4.668;2023-03-19T00:23:35;100997.25;;;11.63;100.00
71778;BME280;59609;52.430;4.668;2023-03-19T00:26:01;100989.13;;;11.54;100.00
71778;BME280;59609;52.430;4.668;2023-03-19T00:28:28;101001.88;;;11.55;100.00
71778;BME280;59609;52.430;4.668;2023-03-19T00:30:53;101002.72;;;11.55;100.00
71778;BME280;59609;52.430;4.668;2023-03-19T00:33:19;101001.22;;;11.61;100.00
71778;BME280;59609;52.430;4.668;2023-03-19T00:35:44;101002.75;;;11.63;100.00
71778;BME280;59609;52.430;4.668;2023-03-19T00:38:10;101000.16;;;11.62;100.00
71778;BME280;59609;52.430;4.668;2023-03-19T00:40:35;101010.34;;;11.61;100.00
71778;BME280;59609;52.430;4.668;2023-03-19T00:43:01;101013.81;;;11.63;100.00
71778;BME280;59609;52.430;4.668;2023-03-19T00:45:26;101010.16;;;11.63;100.00
71778;BME280;59609;52.430;4.668;2023-03-19T00:47:54;101007.56;;;11.53;100.00
71778;BME280;59609;52.430;4.668;2023-03-19T00:50:20;101012.06;;;11.62;100.00
71778;BME280;59609;52.430;4.668;2023-03-19T00:52:46;101018.78;;;11.68;100.00
71778;BME280;59609;52.430;4.668;2023-03-19T00:55:11;101024.28;;;11.52;100.00
71778;BME280;59609;52.430;4.668;2023-03-19T00:57:36;101023.78;;;11.56;100.00
71778;BME280;59609;52.430;4.668;2023-03-19T01:00:03;101025.34;;;11.51;100.00
71778;BME280;59609;52.430;4.668;2023-03-19T01:02:30;101029.66;;;11.53;100.00
71778;BME280;59609;52.430;4.668;2023-03-19T01:04:56;101021.91;;;11.57;100.00
71778;BME280;59609;52.430;4.668;2023-03-19T01:07:21;101020.31;;;11.46;100.00
71778;BME280;59609;52.430;4.668;2023-03-19T01:09:47;101020.47;;;11.45;100.00
71778;BME280;59609;52.430;4.668;2023-03-19T01:12:12;101015.63;;;11.38;100.00
71778;BME280;59609;52.430;4.668;2023-03-19T01:14:37;101029.72;;;11.27;100.00
71778;BME280;59609;52.430;4.668;2023-03-19T01:17:03;101018.19;;;11.24;100.00
71778;BME280;59609;52.430;4.668;2023-03-19T01:19:29;101025.06;;;11.20;100.00
71778;BME280;59609;52.430;4.668;2023-03-19T01:21:54;101032.59;;;11.10;100.00
71778;BME280;59609;52.430;4.668;2023-03-19T01:24:20;101025.53;;;11.07;100.00
71778;BME280;59609;52.430;4.668;2023-03-19T01:26:45;101030.72;;;11.10;100.00
71778;BME280;59609;52.430;4.668;2023-03-19T01:29:11;101038.06;;;11.02;100.00
71778;BME280;59609;52.430;4.668;2023-03-19T01:31:36;101032.00;;;10.98;100.00
71778;BME280;59609;52.430;4.668;2023-03-19T01:34:02;101036.34;;;11.01;100.00
71778;BME280;59609;52.430;4.668;2023-03-19T01:36:28;101038.56;;;10.97;100.00
71778;BME280;59609;52.430;4.668;2023-03-19T01:38:54;101029.78;;;10.94;100.00
71778;BME280;59609;52.430;4.668;2023-03-19T01:41:21;101042.84;;;10.92;100.00
71778;BME280;59609;52.430;4.668;2023-03-19T01:43:47;101032.88;;;10.91;100.00
71778;BME280;59609;52.430;4.668;2023-03-19T01:48:49;101041.13;;;10.91;100.00
71778;BME280;59609;52.430;4.668;2023-03-19T01:51:17;101037.13;;;10.85;100.00
71778;BME280;59609;52.430;4.668;2023-03-19T01:53:47;101049.47;;;10.73;100.00
71778;BME280;59609;52.430;4.668;2023-03-19T01:56:15;101049.72;;;10.62;100.00
71778;BME280;59609;52.430;4.668;2023-03-19T01:58:45;101036.94;;;10.53;100.00
71778;BME280;59609;52.430;4.668;2023-03-19T02:01:12;101033.09;;;10.46;100.00
71778;BME280;59609;52.430;4.668;2023-03-19T02:03:38;101032.41;;;10.44;100.00
71778;BME280;59609;52.430;4.668;2023-03-19T02:06:04;101044.03;;;10.38;100.00
71778;BME280;59609;52.430;4.668;2023-03-19T02:08:31;101045.00;;;10.28;100.00
71778;BME280;59609;52.430;4.668;2023-03-19T02:10:57;101050.84;;;10.25;100.00
71778;BME280;59609;52.430;4.668;2023-03-19T02:13:25;101048.56;;;10.21;100.00
71778;BME280;59609;52.430;4.668;2023-03-19T02:15:52;101046.28;;;10.16;100.00
71778;BME280;59609;52.430;4.668;2023-03-19T02:18:18;101048.00;;;10.17;100.00
71778;BME280;59609;52.430;4.668;2023-03-19T02:26:08;101036.22;;;10.07;100.00
71778;BME280;59609;52.430;4.668;2023-03-19T02:28:37;101055.41;;;9.99;100.00
71778;BME280;59609;52.430;4.668;2023-03-19T02:31:04;101044.06;;;10.02;100.00
71778;BME280;59609;52.430;4.668;2023-03-19T02:33:30;101049.66;;;9.93;100.00
71778;BME280;59609;52.430;4.668;2023-03-19T02:35:56;101048.25;;;9.89;100.00
71778;BME280;59609;52.430;4.668;2023-03-19T02:38:24;101052.00;;;9.88;100.00
71778;BME280;59609;52.430;4.668;2023-03-19T02:40:58;101049.00;;;9.81;100.00
71778;BME280;59609;52.430;4.668;2023-03-19T02:43:25;101048.97;;;9.73;100.00
71778;BME280;59609;52.430;4.668;2023-03-19T02:45:51;101048.41;;;9.69;100.00
71778;BME280;59609;52.430;4.668;2023-03-19T02:48:16;101048.84;;;9.65;100.00
71778;BME280;59609;52.430;4.668;2023-03-19T02:50:42;101051.59;;;9.65;100.00
71778;BME280;59609;52.430;4.668;2023-03-19T02:53:08;101054.53;;;9.63;100.00
71778;BME280;59609;52.430;4.668;2023-03-19T02:55:34;101051.38;;;9.58;100.00
71778;BME280;59609;52.430;4.668;2023-03-19T02:57:59;101056.72;;;9.60;100.00
71778;BME280;59609;52.430;4.668;2023-03-19T03:00:25;101049.34;;;9.60;100.00
71778;BME280;59609;52.430;4.668;2023-03-19T03:02:50;101050.97;;;9.53;100.00
71778;BME280;59609;52.430;4.668;2023-03-19T03:05:16;101050.03;;;9.62;100.00
71778;BME280;59609;52.430;4.668;2023-03-19T03:07:41;101040.44;;;9.49;100.00
71778;BME280;59609;52.430;4.668;2023-03-19T03:10:09;101056.41;;;9.63;100.00
71778;BME280;59609;52.430;4.668;2023-03-19T03:12:35;101056.00;;;9.58;100.00
71778;BME280;59609;52.430;4.668;2023-03-19T03:15:00;101058.88;;;9.39;100.00
71778;BME280;59609;52.430;4.668;2023-03-19T03:17:26;101048.00;;;9.47;100.00
71778;BME280;59609;52.430;4.668;2023-03-19T03:19:52;101048.69;;;9.49;100.00
71778;BME280;59609;52.430;4.668;2023-03-19T03:22:17;101064.84;;;9.34;100.00
71778;BME280;59609;52.430;4.668;2023-03-19T03:24:45;101043.78;;;9.25;100.00
71778;BME280;59609;52.430;4.668;2023-03-19T03:27:11;101064.13;;;9.32;100.00
71778;BME280;59609;52.430;4.668;2023-03-19T03:29:36;101046.63;;;9.33;100.00
71778;BME280;59609;52.430;4.668;2023-03-19T03:32:02;101051.09;;;9.34;100.00
71778;BME280;59609;52.430;4.668;2023-03-19T03:34:28;101049.13;;;9.44;100.00
71778;BME280;59609;52.430;4.668;2023-03-19T03:36:53;101048.69;;;9.49;100.00
71778;BME280;59609;52.430;4.668;2023-03-19T03:39:18;101062.50;;;9.39;100.00
71778;BME280;59609;52.430;4.668;2023-03-19T03:41:44;101049.50;;;9.31;100.00
71778;BME280;59609;52.430;4.668;2023-03-19T03:44:10;101045.81;;;9.23;100.00
71778;BME280;59609;52.430;4.668;2023-03-19T03:46:35;101044.56;;;9.35;100.00
71778;BME280;59609;52.430;4.668;2023-03-19T03:49:01;101041.19;;;9.41;100.00
71778;BME280;59609;52.430;4.668;2023-03-19T03:51:26;101047.44;;;9.43;100.00
71778;BME280;59609;52.430;4.668;2023-03-19T03:53:52;101061.94;;;9.36;100.00
71778;BME280;59609;52.430;4.668;2023-03-19T03:56:17;101055.81;;;9.42;100.00
71778;BME280;59609;52.430;4.668;2023-03-19T03:58:42;101067.00;;;9.40;100.00
71778;BME280;59609;52.430;4.668;2023-03-19T04:01:15;101061.69;;;9.29;100.00
71778;BME280;59609;52.430;4.668;2023-03-19T04:03:41;101061.13;;;9.25;100.00
71778;BME280;59609;52.430;4.668;2023-03-19T04:06:06;101074.13;;;9.33;100.00
71778;BME280;59609;52.430;4.668;2023-03-19T04:08:31;101080.25;;;9.27;100.00
71778;BME280;59609;52.430;4.668;2023-03-19T04:10:57;101086.56;;;9.37;100.00
71778;BME280;59609;52.430;4.668;2023-03-19T04:13:23;101083.94;;;9.36;100.00
71778;BME280;59609;52.430;4.668;2023-03-19T04:15:49;101086.56;;;9.27;100.00
71778;BME280;59609;52.430;4.668;2023-03-19T04:18:14;101090.56;;;9.15;100.00
71778;BME280;59609;52.430;4.668;2023-03-19T04:20:40;101092.56;;;9.23;100.00
71778;BME280;59609;52.430;4.668;2023-03-19T04:23:06;101097.00;;;9.24;100.00
71778;BME280;59609;52.430;4.668;2023-03-19T04:25:31;101090.50;;;9.25;100.00
71778;BME280;59609;52.430;4.668;2023-03-19T04:27:57;101090.41;;;9.17;100.00
71778;BME280;59609;52.430;4.668;2023-03-19T04:30:23;101088.75;;;9.24;100.00
71778;BME280;59609;52.430;4.668;2023-03-19T04:32:49;101082.31;;;9.15;100.00
71778;BME280;59609;52.430;4.668;2023-03-19T04:35:14;101082.63;;;9.12;100.00
71778;BME280;59609;52.430;4.668;2023-03-19T04:37:39;101094.66;;;9.02;100.00
71778;BME280;59609;52.430;4.668;2023-03-19T04:40:05;101087.16;;;9.04;100.00
71778;BME280;59609;52.430;4.668;2023-03-19T04:42:31;101100.41;;;9.08;100.00
71778;BME280;59609;52.430;4.668;2023-03-19T04:44:57;101097.22;;;9.13;100.00
71778;BME280;59609;52.430;4.668;2023-03-19T04:47:22;101108.28;;;9.03;100.00
71778;BME280;59609;52.430;4.668;2023-03-19T04:49:47;101102.91;;;9.02;100.00
71778;BME280;59609;52.430;4.668;2023-03-19T04:52:13;101106.09;;;9.07;100.00
71778;BME280;59609;52.430;4.668;2023-03-19T04:54:38;101109.53;;;9.09;100.00
71778;BME280;59609;52.430;4.668;2023-03-19T04:57:04;101103.50;;;8.96;100.00
71778;BME280;59609;52.430;4.668;2023-03-19T04:59:29;101106.53;;;9.02;100.00
71778;BME280;59609;52.430;4.668;2023-03-19T05:01:55;101117.97;;;8.98;100.00
71778;BME280;59609;52.430;4.668;2023-03-19T05:04:20;101114.72;;;9.12;100.00
71778;BME280;59609;52.430;4.668;2023-03-19T05:06:47;101116.91;;;9.08;100.00
71778;BME280;59609;52.430;4.668;2023-03-19T05:09:12;101117.66;;;9.10;100.00
71778;BME280;59609;52.430;4.668;2023-03-19T05:11:38;101122.97;;;9.12;100.00
71778;BME280;59609;52.430;4.668;2023-03-19T05:14:04;101118.47;;;9.11;100.00
71778;BME280;59609;52.430;4.668;2023-03-19T05:16:29;101128.91;;;9.17;100.00
71778;BME280;59609;52.430;4.668;2023-03-19T05:18:55;101134.72;;;9.04;100.00
71778;BME280;59609;52.430;4.668;2023-03-19T05:21:20;101133.72;;;9.05;100.00
71778;BME280;59609;52.430;4.668;2023-03-19T05:23:46;101131.53;;;9.09;100.00
71778;BME280;59609;52.430;4.668;2023-03-19T05:26:16;101136.66;;;8.85;100.00
71778;BME280;59609;52.430;4.668;2023-03-19T05:28:42;101142.03;;;8.86;100.00
71778;BME280;59609;52.430;4.668;2023-03-19T05:31:08;101129.31;;;8.75;100.00
71778;BME280;59609;52.430;4.668;2023-03-19T05:33:33;101141.00;;;8.77;100.00
71778;BME280;59609;52.430;4.668;2023-03-19T05:35:59;101154.19;;;8.64;100.00
71778;BME280;59609;52.430;4.668;2023-03-19T05:38:25;101146.53;;;8.68;100.00
71778;BME280;59609;52.430;4.668;2023-03-19T05:40:50;101155.09;;;8.55;100.00
71778;BME280;59609;52.430;4.668;2023-03-19T05:43:16;101158.84;;;8.35;100.00
71778;BME280;59609;52.430;4.668;2023-03-19T05:45:42;101156.69;;;8.29;100.00
71778;BME280;59609;52.430;4.668;2023-03-19T05:48:07;101158.13;;;8.23;100.00
71778;BME280;59609;52.430;4.668;2023-03-19T05:50:33;101161.19;;;8.30;100.00
71778;BME280;59609;52.430;4.668;2023-03-19T05:52:59;101161.75;;;8.34;100.00
71778;BME280;59609;52.430;4.668;2023-03-19T05:55:24;101170.28;;;8.40;100.00
71778;BME280;59609;52.430;4.668;2023-03-19T05:57:50;101171.28;;;8.39;100.00
71778;BME280;59609;52.430;4.668;2023-03-19T06:00:16;101166.09;;;8.36;100.00
71778;BME280;59609;52.430;4.668;2023-03-19T06:02:42;101177.47;;;8.51;100.00
71778;BME280;59609;52.430;4.668;2023-03-19T06:05:09;101171.13;;;8.41;100.00
71778;BME280;59609;52.430;4.668;2023-03-19T06:07:35;101168.94;;;8.44;100.00
71778;BME280;59609;52.430;4.668;2023-03-19T06:10:01;101167.94;;;8.55;100.00
71778;BME280;59609;52.430;4.668;2023-03-19T06:12:27;101160.88;;;8.52;100.00
71778;BME280;59609;52.430;4.668;2023-03-19T06:14:52;101169.81;;;8.54;100.00
71778;BME280;59609;52.430;4.668;2023-03-19T06:17:17;101173.31;;;8.56;100.00
71778;BME280;59609;52.430;4.668;2023-03-19T06:19:43;101177.78;;;8.67;100.00
71778;BME280;59609;52.430;4.668;2023-03-19T06:22:08;101179.94;;;8.63;100.00
71778;BME280;59609;52.430;4.668;2023-03-19T06:24:34;101184.28;;;8.66;100.00
71778;BME280;59609;52.430;4.668;2023-03-19T06:26:59;101181.81;;;8.63;100.00
71778;BME280;59609;52.430;4.668;2023-03-19T06:29:25;101194.06;;;8.78;100.00
71778;BME280;59609;52.430;4.668;2023-03-19T06:31:51;101198.28;;;8.82;100.00
71778;BME280;59609;52.430;4.668;2023-03-19T06:34:17;101194.97;;;8.69;100.00
71778;BME280;59609;52.430;4.668;2023-03-19T06:36:42;101196.81;;;8.78;100.00
71778;BME280;59609;52.430;4.668;2023-03-19T06:39:08;101211.72;;;8.75;100.00
71778;BME280;59609;52.430;4.668;2023-03-19T06:41:34;101208.97;;;8.75;100.00
71778;BME280;59609;52.430;4.668;2023-03-19T06:44:00;101215.34;;;8.76;100.00
71778;BME280;59609;52.430;4.668;2023-03-19T06:46:25;101208.53;;;8.90;100.00
71778;BME280;59609;52.430;4.668;2023-03-19T06:48:51;101215.91;;;8.89;100.00
71778;BME280;59609;52.430;4.668;2023-03-19T06:51:16;101219.50;;;8.99;100.00
71778;BME280;59609;52.430;4.668;2023-03-19T06:53:41;101217.19;;;8.85;100.00
71778;BME280;59609;52.430;4.668;2023-03-19T06:56:07;101222.69;;;8.95;100.00
71778;BME280;59609;52.430;4.668;2023-03-19T06:58:33;101227.75;;;8.90;100.00
71778;BME280;59609;52.430;4.668;2023-03-19T07:00:59;101231.94;;;9.03;100.00
71778;BME280;59609;52.430;4.668;2023-03-19T07:03:25;101233.38;;;8.98;100.00
71778;BME280;59609;52.430;4.668;2023-03-19T07:05:50;101232.34;;;9.08;100.00
71778;BME280;59609;52.430;4.668;2023-03-19T07:08:16;101234.81;;;9.02;100.00
71778;BME280;59609;52.430;4.668;2023-03-19T07:10:42;101237.81;;;9.18;100.00
71778;BME280;59609;52.430;4.668;2023-03-19T07:13:07;101239.69;;;9.27;100.00
71778;BME280;59609;52.430;4.668;2023-03-19T07:15:33;101239.41;;;9.30;100.00
71778;BME280;59609;52.430;4.668;2023-03-19T07:18:00;101243.47;;;9.26;100.00
71778;BME280;59609;52.430;4.668;2023-03-19T07:20:25;101239.09;;;9.33;100.00
71778;BME280;59609;52.430;4.668;2023-03-19T07:22:51;101246.22;;;9.26;100.00
71778;BME280;59609;52.430;4.668;2023-03-19T07:25:16;101248.34;;;9.32;100.00
71778;BME280;59609;52.430;4.668;2023-03-19T07:27:42;101243.28;;;9.37;100.00
71778;BME280;59609;52.430;4.668;2023-03-19T07:30:08;101254.13;;;9.39;100.00
71778;BME280;59609;52.430;4.668;2023-03-19T07:32:35;101253.59;;;9.62;100.00
71778;BME280;59609;52.430;4.668;2023-03-19T07:35:00;101254.56;;;9.71;100.00
71778;BME280;59609;52.430;4.668;2023-03-19T07:37:26;101242.56;;;9.72;100.00
71778;BME280;59609;52.430;4.668;2023-03-19T07:39:51;101265.09;;;9.85;100.00
71778;BME280;59609;52.430;4.668;2023-03-19T07:42:16;101259.22;;;9.98;100.00
71778;BME280;59609;52.430;4.668;2023-03-19T07:44:42;101269.13;;;10.18;100.00
71778;BME280;59609;52.430;4.668;2023-03-19T07:47:07;101265.69;;;10.16;100.00
71778;BME280;59609;52.430;4.668;2023-03-19T07:49:33;101278.50;;;9.98;100.00
71778;BME280;59609;52.430;4.668;2023-03-19T07:51:58;101280.19;;;10.08;100.00
71778;BME280;59609;52.430;4.668;2023-03-19T07:54:23;101273.66;;;9.82;100.00
71778;BME280;59609;52.430;4.668;2023-03-19T07:56:49;101289.03;;;9.75;100.00
71778;BME280;59609;52.430;4.668;2023-03-19T07:59:14;101284.66;;;9.82;100.00
71778;BME280;59609;52.430;4.668;2023-03-19T08:01:40;101280.22;;;9.71;100.00
71778;BME280;59609;52.430;4.668;2023-03-19T08:04:06;101283.72;;;9.64;100.00
71778;BME280;59609;52.430;4.668;2023-03-19T08:06:31;101287.72;;;9.79;100.00
71778;BME280;59609;52.430;4.668;2023-03-19T08:08:56;101289.09;;;9.93;100.00
71778;BME280;59609;52.430;4.668;2023-03-19T08:11:22;101286.66;;;9.90;100.00
71778;BME280;59609;52.430;4.668;2023-03-19T08:13:47;101296.75;;;9.99;100.00
71778;BME280;59609;52.430;4.668;2023-03-19T08:16:12;101300.06;;;10.02;100.00
71778;BME280;59609;52.430;4.668;2023-03-19T08:18:38;101296.34;;;9.94;100.00
71778;BME280;59609;52.430;4.668;2023-03-19T08:21:04;101315.31;;;9.97;100.00
71778;BME280;59609;52.430;4.668;2023-03-19T08:23:29;101312.88;;;10.21;100.00
71778;BME280;59609;52.430;4.668;2023-03-19T08:25:54;101321.16;;;10.21;100.00
71778;BME280;59609;52.430;4.668;2023-03-19T08:28:21;101321.00;;;10.22;100.00
71778;BME280;59609;52.430;4.668;2023-03-19T08:30:47;101319.28;;;10.12;100.00
71778;BME280;59609;52.430;4.668;2023-03-19T08:33:13;101314.25;;;10.17;100.00
71778;BME280;59609;52.430;4.668;2023-03-19T08:35:38;101328.88;;;10.08;100.00
71778;BME280;59609;52.430;4.668;2023-03-19T08:38:04;101321.03;;;10.13;100.00
71778;BME280;59609;52.430;4.668;2023-03-19T08:40:30;101327.09;;;10.26;100.00
71778;BME280;59609;52.430;4.668;2023-03-19T08:42:55;101335.47;;;10.24;100.00
71778;BME280;59609;52.430;4.668;2023-03-19T08:45:21;101327.91;;;10.36;100.00
71778;BME280;59609;52.430;4.668;2023-03-19T08:47:48;101332.53;;;10.36;100.00
71778;BME280;59609;52.430;4.668;2023-03-19T08:50:14;101326.19;;;10.53;100.00
71778;BME280;59609;52.430;4.668;2023-03-19T08:52:39;101339.66;;;10.56;100.00
71778;BME280;59609;52.430;4.668;2023-03-19T08:55:05;101348.38;;;10.51;100.00
71778;BME280;59609;52.430;4.668;2023-03-19T08:57:31;101353.63;;;10.45;100.00
71778;BME280;59609;52.430;4.668;2023-03-19T08:59:57;101346.75;;;10.58;100.00
71778;BME280;59609;52.430;4.668;2023-03-19T09:02:23;101349.00;;;10.45;100.00
71778;BME280;59609;52.430;4.668;2023-03-19T09:04:48;101338.22;;;10.52;100.00
71778;BME280;59609;52.430;4.668;2023-03-19T09:07:14;101357.19;;;10.55;100.00
71778;BME280;59609;52.430;4.668;2023-03-19T09:09:41;101358.56;;;10.68;100.00
71778;BME280;59609;52.430;4.668;2023-03-19T09:12:08;101360.44;;;10.68;100.00
71778;BME280;59609;52.430;4.668;2023-03-19T09:14:35;101367.88;;;10.67;100.00
71778;BME280;59609;52.430;4.668;2023-03-19T09:17:00;101380.47;;;10.70;100.00
71778;BME280;59609;52.430;4.668;2023-03-19T09:19:26;101372.59;;;10.57;100.00
71778;BME280;59609;52.430;4.668;2023-03-19T09:21:51;101374.16;;;10.60;100.00
71778;BME280;59609;52.430;4.668;2023-03-19T09:24:17;101375.28;;;10.67;100.00
71778;BME280;59609;52.430;4.668;2023-03-19T09:26:45;101373.66;;;10.64;100.00
71778;BME280;59609;52.430;4.668;2023-03-19T09:29:11;101382.44;;;10.77;100.00
71778;BME280;59609;52.430;4.668;2023-03-19T09:31:37;101386.47;;;10.83;100.00
71778;BME280;59609;52.430;4.668;2023-03-19T09:34:03;101390.00;;;10.75;100.00
71778;BME280;59609;52.430;4.668;2023-03-19T09:36:28;101387.75;;;10.61;100.00
71778;BME280;59609;52.430;4.668;2023-03-19T09:38:54;101385.69;;;10.73;100.00
71778;BME280;59609;52.430;4.668;2023-03-19T09:44:30;101395.19;;;10.78;100.00
71778;BME280;59609;52.430;4.668;2023-03-19T09:49:38;101395.63;;;11.01;100.00
71778;BME280;59609;52.430;4.668;2023-03-19T09:52:40;101396.44;;;10.94;100.00
71778;BME280;59609;52.430;4.668;2023-03-19T09:55:30;101403.13;;;11.09;100.00
71778;BME280;59609;52.430;4.668;2023-03-19T09:57:58;101409.56;;;11.00;100.00
71778;BME280;59609;52.430;4.668;2023-03-19T10:00:29;101417.50;;;10.85;100.00
71778;BME280;59609;52.430;4.668;2023-03-19T10:10:48;101412.66;;;10.97;100.00
71778;BME280;59609;52.430;4.668;2023-03-19T10:13:37;101419.84;;;11.07;100.00
71778;BME280;59609;52.430;4.668;2023-03-19T10:16:19;101427.25;;;11.07;100.00
71778;BME280;59609;52.430;4.668;2023-03-19T10:18:49;101417.84;;;11.00;100.00
71778;BME280;59609;52.430;4.668;2023-03-19T10:23:52;101421.78;;;11.15;100.00
71778;BME280;59609;52.430;4.668;2023-03-19T10:26:21;101428.94;;;11.08;100.00
71778;BME280;59609;52.430;4.668;2023-03-19T10:29:09;101427.69;;;11.02;100.00
71778;BME280;59609;52.430;4.668;2023-03-19T10:36:58;101422.34;;;11.18;100.00
71778;BME280;59609;52.430;4.668;2023-03-19T10:39:25;101418.56;;;11.19;100.00
71778;BME280;59609;52.430;4.668;2023-03-19T10:42:17;101425.25;;;11.34;100.00
71778;BME280;59609;52.430;4.668;2023-03-19T10:44:52;101418.13;;;11.24;100.00
71778;BME280;59609;52.430;4.668;2023-03-19T10:47:24;101422.03;;;11.39;100.00
71778;BME280;59609;52.430;4.668;2023-03-19T10:49:50;101423.47;;;11.25;100.00
71778;BME280;59609;52.430;4.668;2023-03-19T10:52:23;101431.00;;;11.41;100.00
71778;BME280;59609;52.430;4.668;2023-03-19T10:54:53;101432.38;;;11.37;100.00
71778;BME280;59609;52.430;4.668;2023-03-19T10:57:25;101427.09;;;11.44;100.00
71778;BME280;59609;52.430;4.668;2023-03-19T10:59:51;101437.19;;;11.53;100.00
71778;BME280;59609;52.430;4.668;2023-03-19T11:02:19;101438.41;;;11.58;100.00
71778;BME280;59609;52.430;4.668;2023-03-19T11:04:45;101437.50;;;11.67;100.00
71778;BME280;59609;52.430;4.668;2023-03-19T11:07:19;101440.47;;;11.38;100.00
71778;BME280;59609;52.430;4.668;2023-03-19T11:09:47;101446.31;;;11.53;100.00
71778;BME280;59609;52.430;4.668;2023-03-19T11:12:26;101454.50;;;11.45;100.00
71778;BME280;59609;52.430;4.668;2023-03-19T11:14:56;101455.38;;;11.63;100.00
71778;BME280;59609;52.430;4.668;2023-03-19T11:19:54;101457.81;;;11.66;100.00
71778;BME280;59609;52.430;4.668;2023-03-19T11:22:30;101451.59;;;11.82;100.00
71778;BME280;59609;52.430;4.668;2023-03-19T11:25:02;101461.28;;;11.68;100.00
71778;BME280;59609;52.430;4.668;2023-03-19T11:27:38;101460.41;;;11.68;100.00
71778;BME280;59609;52.430;4.668;2023-03-19T11:30:15;101467.91;;;11.58;100.00
71778;BME280;59609;52.430;4.668;2023-03-19T11:33:10;101463.50;;;11.65;100.00
71778;BME280;59609;52.430;4.668;2023-03-19T11:41:22;101466.44;;;11.63;100.00
71778;BME280;59609;52.430;4.668;2023-03-19T11:47:20;101475.97;;;11.33;100.00
71778;BME280;59609;52.430;4.668;2023-03-19T12:00:29;101486.16;;;11.51;100.00
71778;BME280;59609;52.430;4.668;2023-03-19T12:08:44;101485.66;;;11.55;100.00
71778;BME280;59609;52.430;4.668;2023-03-19T12:11:23;101486.56;;;11.73;100.00
71778;BME280;59609;52.430;4.668;2023-03-19T12:19:29;101494.88;;;11.46;100.00
71778;BME280;59609;52.430;4.668;2023-03-19T12:27:34;101505.06;;;11.63;100.00
71778;BME280;59609;52.430;4.668;2023-03-19T12:33:26;101504.00;;;11.74;100.00
71778;BME280;59609;52.430;4.668;2023-03-19T12:35:55;101507.00;;;11.80;100.00
71778;BME280;59609;52.430;4.668;2023-03-19T12:38:45;101508.53;;;11.65;100.00
71778;BME280;59609;52.430;4.668;2023-03-19T12:41:31;101506.50;;;11.85;100.00
71778;BME280;59609;52.430;4.668;2023-03-19T12:44:03;101519.66;;;11.91;100.00
71778;BME280;59609;52.430;4.668;2023-03-19T12:49:08;101516.63;;;11.76;100.00
71778;BME280;59609;52.430;4.668;2023-03-19T12:51:42;101515.84;;;11.84;100.00
71778;BME280;59609;52.430;4.668;2023-03-19T12:56:58;101516.13;;;11.81;100.00
71778;BME280;59609;52.430;4.668;2023-03-19T13:01:52;101529.47;;;11.85;100.00
71778;BME280;59609;52.430;4.668;2023-03-19T13:04:25;101529.50;;;12.11;100.00
71778;BME280;59609;52.430;4.668;2023-03-19T13:07:04;101538.84;;;11.93;100.00
71778;BME280;59609;52.430;4.668;2023-03-19T13:12:05;101541.28;;;11.78;100.00
71778;BME280;59609;52.430;4.668;2023-03-19T13:14:56;101546.34;;;11.82;100.00
71778;BME280;59609;52.430;4.668;2023-03-19T13:20:13;101549.97;;;11.83;100.00
71778;BME280;59609;52.430;4.668;2023-03-19T13:22:44;101547.81;;;11.95;100.00
71778;BME280;59609;52.430;4.668;2023-03-19T13:25:15;101541.94;;;11.90;100.00
71778;BME280;59609;52.430;4.668;2023-03-19T13:27:42;101540.13;;;11.80;100.00
71778;BME280;59609;52.430;4.668;2023-03-19T13:38:33;101552.09;;;12.07;100.00
71778;BME280;59609;52.430;4.668;2023-03-19T13:41:01;101549.81;;;12.02;100.00
71778;BME280;59609;52.430;4.668;2023-03-19T13:56:31;101580.16;;;11.84;100.00
71778;BME280;59609;52.430;4.668;2023-03-19T13:59:25;101575.13;;;11.98;100.00
71778;BME280;59609;52.430;4.668;2023-03-19T14:01:52;101579.41;;;12.10;100.00
71778;BME280;59609;52.430;4.668;2023-03-19T14:07:16;101580.66;;;11.98;100.00
71778;BME280;59609;52.430;4.668;2023-03-19T14:09:47;101588.56;;;11.93;100.00
71778;BME280;59609;52.430;4.668;2023-03-19T14:20:28;101600.69;;;11.37;100.00
71778;BME280;59609;52.430;4.668;2023-03-19T14:25:25;101593.63;;;10.88;100.00
71778;BME280;59609;52.430;4.668;2023-03-19T14:27:59;101587.22;;;10.88;100.00
71778;BME280;59609;52.430;4.668;2023-03-19T14:30:33;101580.84;;;10.97;100.00
71778;BME280;59609;52.430;4.668;2023-03-19T14:33:06;101579.13;;;10.86;100.00
71778;BME280;59609;52.430;4.668;2023-03-19T14:35:41;101588.84;;;10.90;100.00
71778;BME280;59609;52.430;4.668;2023-03-19T14:38:13;101583.91;;;10.94;100.00
71778;BME280;59609;52.430;4.668;2023-03-19T14:40:46;101581.00;;;10.85;100.00
71778;BME280;59609;52.430;4.668;2023-03-19T14:46:52;101576.25;;;10.78;100.00
71778;BME280;59609;52.430;4.668;2023-03-19T14:49:58;101589.28;;;10.85;100.00
71778;BME280;59609;52.430;4.668;2023-03-19T14:52:19;101594.97;;;10.74;100.00